Weather at Bremner Airport [CLOSED]

Public forecast

Using degrees Celsius for public forecast. Weather courtesy of forecast.io.

Closest aviation weather report (METAR) to Bremner Airport

Closest report is Edmonton (CFB Namao) Heliport, 9.9 nm (18.4 km) WNW. Retrieved 2021/01/21 13:00 UTC (22 minutes ago):

CYED 211300Z AUTO 25002KT 9SM FEW081 BKN090 M09/M11 A3007 RMK SLP220

Closest aviation forecast (TAF) to Bremner Airport

Closest forecast is Edmonton (CFB Namao) Heliport, 9.9 nm (18.4 km) WNW. Retrieved 2021/01/21 12:33 UTC (49 minutes ago):

TAF CYED 211130Z 2112/2124 29005KT P6SM BKN080 FM211400 23005KT P6SM BKN040 OVC080 FM211600 25008KT P6SM BKN025 TEMPO 2116/2120 5SM -SHSN OVC020 RMK FCST BASED ON AUTO OBS NXT FCST BY 211800Z